createdAt,value
2019-03-06T00:01:23.021Z,11.00
2019-03-06T00:03:53.061Z,12.97
2019-03-06T00:06:21.784Z,12.40
2019-03-06T00:08:50.192Z,10.37
2019-03-06T00:11:26.196Z,10.70
2019-03-06T00:13:54.617Z,10.33
2019-03-06T00:16:23.041Z,11.33
2019-03-06T00:19:00.286Z,10.30
2019-03-06T00:21:31.469Z,10.57
2019-03-06T00:24:00.165Z,10.57
2019-03-06T00:26:37.312Z,12.17
2019-03-06T00:29:09.008Z,11.23
2019-03-06T00:31:40.633Z,11.87
2019-03-06T00:34:09.128Z,10.13
2019-03-06T00:36:42.280Z,11.37
2019-03-06T00:39:14.391Z,11.40
2019-03-06T00:41:45.813Z,10.33
2019-03-06T00:44:15.882Z,11.23
2019-03-06T00:46:45.939Z,11.90
2019-03-06T00:49:14.361Z,11.97
2019-03-06T00:51:42.781Z,12.33
2019-03-06T00:54:14.158Z,12.80
2019-03-06T00:56:48.353Z,10.63
2019-03-06T00:59:16.777Z,11.97
2019-03-06T01:01:46.737Z,9.97
2019-03-06T01:04:15.162Z,10.70
2019-03-06T01:06:49.246Z,11.57
2019-03-06T01:09:17.674Z,10.67
2019-03-06T01:11:47.730Z,9.50
2019-03-06T01:14:16.335Z,10.90
2019-03-06T01:16:44.989Z,9.27
2019-03-06T01:19:24.050Z,9.77
2019-03-06T01:21:56.619Z,10.80
2019-03-06T01:24:27.762Z,11.53
2019-03-06T01:26:56.176Z,10.33
2019-03-06T01:29:27.710Z,11.63
2019-03-06T01:31:56.133Z,8.90
2019-03-06T01:34:38.017Z,9.83
2019-03-06T01:37:16.532Z,9.43
2019-03-06T01:39:49.538Z,10.57
2019-03-06T01:42:22.358Z,11.43
2019-03-06T01:44:52.706Z,10.47
2019-03-06T01:47:25.447Z,10.70
2019-03-06T01:49:59.841Z,9.90
2019-03-06T01:52:30.986Z,10.27
2019-03-06T01:55:02.974Z,10.37
2019-03-06T01:57:33.883Z,11.27
2019-03-06T02:00:02.314Z,10.27
2019-03-06T02:02:32.705Z,10.43
2019-03-06T02:05:05.469Z,11.07
2019-03-06T02:07:39.418Z,10.43
2019-03-06T02:10:16.664Z,12.20
2019-03-06T02:12:45.078Z,9.60
2019-03-06T02:15:18.301Z,9.57
2019-03-06T02:17:49.429Z,9.97
2019-03-06T02:20:21.170Z,10.97
2019-03-06T02:22:51.230Z,10.17
2019-03-06T02:25:25.029Z,9.57
2019-03-06T02:27:59.240Z,10.90
2019-03-06T02:30:28.034Z,9.90
2019-03-06T02:33:02.246Z,9.10
2019-03-06T02:35:32.236Z,9.50
2019-03-06T02:38:03.500Z,9.07
2019-03-06T02:40:34.633Z,8.60
2019-03-06T02:43:15.927Z,10.43
2019-03-06T02:45:49.247Z,9.17
2019-03-06T02:48:23.668Z,8.73
2019-03-06T02:50:52.099Z,10.73
2019-03-06T02:53:23.199Z,9.93
2019-03-06T02:55:53.257Z,9.47
2019-03-06T02:58:38.587Z,11.97
2019-03-06T03:01:21.297Z,9.73
2019-03-06T03:04:12.444Z,10.10
2019-03-06T03:06:42.513Z,10.73
2019-03-06T03:09:22.042Z,10.37
2019-03-06T03:11:53.541Z,9.23
2019-03-06T03:14:30.763Z,11.03
2019-03-06T03:16:59.196Z,10.57
2019-03-06T03:19:30.723Z,10.80
2019-03-06T03:21:59.171Z,10.27
2019-03-06T03:24:29.295Z,12.10
2019-03-06T03:26:57.796Z,10.97
2019-03-06T03:29:29.192Z,11.00
2019-03-06T03:31:59.256Z,9.93
2019-03-06T03:34:30.420Z,10.53
2019-03-06T03:37:06.260Z,10.30
2019-03-06T03:39:39.583Z,13.03
2019-03-06T03:42:13.554Z,11.50
2019-03-06T03:44:41.972Z,11.70
2019-03-06T03:47:11.122Z,12.10
2019-03-06T03:49:39.530Z,21.10
2019-03-06T03:52:07.946Z,16.60
2019-03-06T03:57:46.684Z,14.90
2019-03-06T04:00:22.780Z,13.47
2019-03-06T04:02:53.604Z,12.23
2019-03-06T04:05:24.948Z,11.27
2019-03-06T04:07:53.374Z,13.43
2019-03-06T04:10:21.795Z,14.40
2019-03-06T04:12:53.352Z,12.23
2019-03-06T04:15:23.758Z,14.57
2019-03-06T04:18:11.319Z,12.30
2019-03-06T04:20:42.291Z,14.20
2019-03-06T04:23:19.201Z,14.80
2019-03-06T04:25:56.168Z,14.27
2019-03-06T04:28:29.121Z,13.63
2019-03-06T04:31:01.712Z,16.23
2019-03-06T04:33:30.390Z,15.70
2019-03-06T04:36:00.454Z,14.63
2019-03-06T04:38:37.201Z,15.33
2019-03-06T04:41:09.686Z,13.63
2019-03-06T04:43:38.375Z,13.00
2019-03-06T04:46:11.906Z,14.80
2019-03-06T04:48:40.331Z,14.00
2019-03-06T04:51:09.006Z,13.73
2019-03-06T04:53:37.425Z,13.33
2019-03-06T04:56:08.876Z,12.47
2019-03-06T04:58:52.687Z,13.00
2019-03-06T05:01:23.486Z,13.73
2019-03-06T05:03:54.942Z,13.37
2019-03-06T05:06:26.087Z,13.40
2019-03-06T05:09:00.209Z,12.47
2019-03-06T05:11:32.946Z,13.57
2019-03-06T05:14:05.985Z,11.03
2019-03-06T05:16:51.134Z,11.80
2019-03-06T05:19:21.198Z,13.43
2019-03-06T05:21:53.419Z,11.07
2019-03-06T05:24:28.255Z,13.10
2019-03-06T05:26:58.321Z,13.83
2019-03-06T05:29:29.757Z,11.97
2019-03-06T05:32:24.102Z,13.03
2019-03-06T05:34:55.813Z,11.60
2019-03-06T05:38:00.042Z,12.93
2019-03-06T05:40:29.324Z,13.70
2019-03-06T05:43:06.514Z,14.77
2019-03-06T05:45:34.942Z,13.90
2019-03-06T05:48:11.090Z,14.33
2019-03-06T05:50:39.272Z,13.50
2019-03-06T05:53:07.694Z,14.27
2019-03-06T05:55:36.121Z,14.03
2019-03-06T05:58:19.416Z,14.43
2019-03-06T06:00:50.560Z,15.17
2019-03-06T06:03:18.961Z,15.40
2019-03-06T06:05:47.394Z,15.17
2019-03-06T06:08:20.714Z,15.50
2019-03-06T06:10:52.081Z,17.13
2019-03-06T06:13:20.502Z,17.23
2019-03-06T06:15:51.767Z,15.80
2019-03-06T06:18:25.851Z,19.27
2019-03-06T06:21:11.150Z,17.10
2019-03-06T06:23:47.003Z,15.47
2019-03-06T06:26:21.146Z,15.53
2019-03-06T06:28:55.054Z,16.00
2019-03-06T06:31:26.418Z,16.83
2019-03-06T06:34:01.155Z,17.27
2019-03-06T06:36:30.027Z,16.17
2019-03-06T06:39:03.874Z,15.03
2019-03-06T06:41:32.789Z,16.40
2019-03-06T06:44:03.923Z,16.20
2019-03-06T06:46:46.160Z,15.37
2019-03-06T06:49:17.504Z,16.33
2019-03-06T06:52:08.913Z,16.13
2019-03-06T06:54:40.482Z,14.83
2019-03-06T06:57:36.167Z,13.57
2019-03-06T07:00:27.152Z,14.60
2019-03-06T07:03:34.750Z,14.20
2019-03-06T07:06:04.884Z,17.43
2019-03-06T07:08:40.925Z,17.13
2019-03-06T07:11:30.355Z,16.97
2019-03-06T07:14:07.626Z,16.77
2019-03-06T07:16:43.586Z,14.90
2019-03-06T07:19:22.687Z,17.63
2019-03-06T07:22:10.758Z,15.97
2019-03-06T07:24:42.242Z,16.37
2019-03-06T07:27:27.421Z,19.93
2019-03-06T07:30:09.607Z,17.10
2019-03-06T07:32:58.034Z,18.90
2019-03-06T07:36:02.290Z,17.07
2019-03-06T07:38:41.221Z,18.23
2019-03-06T07:41:31.782Z,20.43
2019-03-06T07:44:13.914Z,18.10
2019-03-06T07:46:52.083Z,18.97
2019-03-06T07:49:44.975Z,19.20
2019-03-06T07:52:24.988Z,20.63
2019-03-06T07:55:04.733Z,21.90
2019-03-06T07:57:46.370Z,20.00
2019-03-06T08:00:21.883Z,18.53
2019-03-06T08:02:59.129Z,17.63
2019-03-06T08:05:27.567Z,15.17
2019-03-06T08:07:55.986Z,15.67
2019-03-06T08:10:29.010Z,17.10
2019-03-06T08:13:08.021Z,14.00
2019-03-06T08:15:43.650Z,14.50
2019-03-06T08:18:20.602Z,14.37
2019-03-06T08:20:59.367Z,14.60
2019-03-06T08:23:35.189Z,15.13
2019-03-06T08:26:04.058Z,14.50
2019-03-06T08:28:35.474Z,13.43
2019-03-06T08:31:11.454Z,13.90
2019-03-06T08:33:39.878Z,13.57
2019-03-06T08:36:14.446Z,12.90
2019-03-06T08:38:47.486Z,13.47
2019-03-06T08:41:15.938Z,13.37
2019-03-06T08:43:45.998Z,11.23
2019-03-06T08:46:38.362Z,11.53
2019-03-06T08:49:30.432Z,11.60
2019-03-06T08:52:12.783Z,12.20
2019-03-06T08:54:50.661Z,11.30
2019-03-06T08:57:24.591Z,12.10
2019-03-06T09:00:03.666Z,10.50
2019-03-06T09:02:54.529Z,10.20
2019-03-06T09:05:24.893Z,13.07
2019-03-06T09:07:57.702Z,10.07
2019-03-06T09:10:27.774Z,11.83
2019-03-06T09:13:03.687Z,11.33
2019-03-06T09:15:50.396Z,10.90
2019-03-06T09:18:34.378Z,12.50
2019-03-06T09:21:10.222Z,11.53
2019-03-06T09:23:46.198Z,11.20
2019-03-06T09:26:20.175Z,12.47
2019-03-06T09:29:02.090Z,11.13
2019-03-06T09:31:53.061Z,9.10
2019-03-06T09:34:41.259Z,8.70
2019-03-06T09:37:14.326Z,10.10
2019-03-06T09:40:03.913Z,10.40
2019-03-06T09:42:39.674Z,10.03
2019-03-06T09:45:27.758Z,11.27
2019-03-06T09:47:57.825Z,11.93
2019-03-06T09:50:33.865Z,12.87
2019-03-06T09:53:09.662Z,12.47
2019-03-06T09:55:40.358Z,12.60
2019-03-06T09:58:28.553Z,11.23
2019-03-06T10:01:07.546Z,12.93
2019-03-06T10:03:56.402Z,10.77
2019-03-06T10:06:26.526Z,10.70
2019-03-06T10:09:11.921Z,12.63
2019-03-06T10:11:58.259Z,10.53
2019-03-06T10:14:44.810Z,10.83
2019-03-06T10:17:20.778Z,9.37
2019-03-06T10:19:59.241Z,11.07
2019-03-06T10:22:29.194Z,10.17
2019-03-06T10:25:03.262Z,9.20
2019-03-06T10:27:33.214Z,8.97
2019-03-06T10:30:01.891Z,8.10
2019-03-06T10:32:38.686Z,7.27
2019-03-06T10:35:11.853Z,7.77
2019-03-06T10:37:41.978Z,7.93
2019-03-06T10:40:22.754Z,7.90
2019-03-06T10:43:00.080Z,8.07
2019-03-06T10:45:32.054Z,8.20
2019-03-06T10:48:11.830Z,7.10
2019-03-06T10:50:44.298Z,7.00
2019-03-06T10:53:12.785Z,6.60
2019-03-06T10:55:41.694Z,8.17
2019-03-06T10:58:10.390Z,7.30
2019-03-06T11:00:44.248Z,6.07
2019-03-06T11:03:12.968Z,6.03
2019-03-06T11:05:41.826Z,5.53
2019-03-06T11:08:10.383Z,5.67
2019-03-06T11:10:39.029Z,5.40
2019-03-06T11:13:11.574Z,6.30
2019-03-06T11:15:43.380Z,5.40
2019-03-06T11:18:11.827Z,5.67
2019-03-06T11:20:47.300Z,5.20
2019-03-06T11:23:18.811Z,5.20
2019-03-06T11:25:49.918Z,5.33
2019-03-06T11:28:21.435Z,5.70
2019-03-06T11:31:06.205Z,7.00
2019-03-06T11:33:42.541Z,7.03
2019-03-06T11:36:11.029Z,5.17
2019-03-06T11:38:39.454Z,5.67
2019-03-06T11:41:13.639Z,5.40
2019-03-06T11:43:43.710Z,5.13
2019-03-06T11:46:21.201Z,6.20
2019-03-06T11:48:51.333Z,7.10
2019-03-06T11:51:22.561Z,5.53
2019-03-06T11:53:56.270Z,6.10
2019-03-06T11:56:33.104Z,5.30
2019-03-06T11:59:01.517Z,4.83
2019-03-06T12:01:36.627Z,5.03
2019-03-06T12:04:06.922Z,4.47
2019-03-06T12:06:38.116Z,4.50
2019-03-06T12:09:09.606Z,3.83
2019-03-06T12:11:38.523Z,4.97
2019-03-06T12:14:07.280Z,3.93
2019-03-06T12:16:41.854Z,7.00
2019-03-06T12:19:09.927Z,4.23
2019-03-06T12:21:36.006Z,4.83
2019-03-06T12:24:07.106Z,4.30
2019-03-06T12:26:38.686Z,4.17
2019-03-06T12:29:08.893Z,4.50
2019-03-06T12:31:37.336Z,3.70
2019-03-06T12:34:14.742Z,4.03
2019-03-06T12:36:46.032Z,4.27
2019-03-06T12:39:21.222Z,3.93
2019-03-06T12:41:52.570Z,4.40
2019-03-06T12:44:23.890Z,4.07
2019-03-06T12:46:52.384Z,4.73
2019-03-06T12:49:22.770Z,3.97
2019-03-06T12:51:54.421Z,4.70
2019-03-06T12:54:21.484Z,3.67
2019-03-06T12:56:49.912Z,4.77
2019-03-06T12:59:24.224Z,3.80
2019-03-06T13:01:52.705Z,4.63
2019-03-06T13:04:21.127Z,3.80
2019-03-06T13:06:58.237Z,3.70
2019-03-06T13:09:29.308Z,6.70
2019-03-06T13:12:00.484Z,3.80
2019-03-06T13:14:33.240Z,3.87
2019-03-06T13:16:59.478Z,4.07
2019-03-06T13:19:29.710Z,6.17
2019-03-06T13:21:59.846Z,4.37
2019-03-06T13:24:29.913Z,4.33
2019-03-06T13:27:01.630Z,5.00
2019-03-06T13:29:30.090Z,4.30
2019-03-06T13:32:00.153Z,4.70
2019-03-06T13:34:30.223Z,5.10
2019-03-06T13:37:04.349Z,3.27
2019-03-06T13:39:37.015Z,3.60
2019-03-06T13:42:08.690Z,4.43
2019-03-06T13:44:37.349Z,4.53
2019-03-06T13:47:08.478Z,3.23
2019-03-06T13:49:39.986Z,3.23
2019-03-06T13:52:08.490Z,2.70
2019-03-06T13:54:39.829Z,4.20
2019-03-06T13:57:14.294Z,2.90
2019-03-06T13:59:42.728Z,3.60
2019-03-06T14:02:15.590Z,2.70
2019-03-06T14:04:51.410Z,2.50
2019-03-06T14:07:21.470Z,3.50
2019-03-06T14:09:51.529Z,3.30
2019-03-06T14:12:31.461Z,2.57
2019-03-06T14:15:00.316Z,2.20
2019-03-06T14:17:28.968Z,2.40
2019-03-06T14:20:00.059Z,3.67
2019-03-06T14:22:28.662Z,3.17
2019-03-06T14:24:57.647Z,2.73
2019-03-06T14:27:31.292Z,3.17
2019-03-06T14:29:59.854Z,3.30
2019-03-06T14:32:31.727Z,2.87
2019-03-06T14:35:00.335Z,3.77
2019-03-06T14:37:29.756Z,2.20
2019-03-06T14:40:09.426Z,1.67
2019-03-06T14:42:31.631Z,1.93
2019-03-06T14:45:01.878Z,2.57
2019-03-06T14:47:30.367Z,2.00
2019-03-06T14:49:58.861Z,1.50
2019-03-06T14:52:30.466Z,3.10
2019-03-06T14:54:59.159Z,2.00
2019-03-06T14:57:27.582Z,1.80
2019-03-06T15:00:00.751Z,1.93
2019-03-06T15:02:32.234Z,2.80
2019-03-06T15:05:05.046Z,2.27
2019-03-06T15:07:35.078Z,1.97
2019-03-06T15:10:09.551Z,3.33
2019-03-06T15:12:38.385Z,3.20
2019-03-06T15:15:10.466Z,2.10
2019-03-06T15:17:38.904Z,3.83
2019-03-06T15:20:24.648Z,2.57
2019-03-06T15:22:54.477Z,3.70
2019-03-06T15:25:29.060Z,4.47
2019-03-06T15:27:57.626Z,4.03
2019-03-06T15:30:43.711Z,1.97
2019-03-06T15:33:15.085Z,2.10
2019-03-06T15:35:43.511Z,2.57
2019-03-06T15:38:12.271Z,2.10
2019-03-06T15:40:42.389Z,2.27
2019-03-06T15:43:13.061Z,3.00
2019-03-06T15:45:52.438Z,2.53
2019-03-06T15:48:24.541Z,3.17
2019-03-06T15:50:53.112Z,3.87
2019-03-06T15:53:24.486Z,5.53
2019-03-06T15:55:54.906Z,3.50
2019-03-06T15:58:23.702Z,6.47
2019-03-06T16:00:57.666Z,7.90
2019-03-06T16:03:32.343Z,7.63
2019-03-06T16:06:02.493Z,13.17
2019-03-06T16:08:31.138Z,7.57
2019-03-06T16:10:59.635Z,2.60
2019-03-06T16:13:32.353Z,3.03
2019-03-06T16:16:07.121Z,2.13
2019-03-06T16:18:37.215Z,1.70
2019-03-06T16:21:09.882Z,1.70
2019-03-06T16:23:41.280Z,1.70
2019-03-06T16:26:30.770Z,2.10
2019-03-06T16:29:05.106Z,3.20
2019-03-06T16:31:39.170Z,3.17
2019-03-06T16:34:15.832Z,3.60
2019-03-06T16:36:41.266Z,19.87
2019-03-06T16:39:15.631Z,19.70
2019-03-06T16:41:44.042Z,7.10
2019-03-06T16:44:13.373Z,6.60
2019-03-06T16:46:44.641Z,3.00
2019-03-06T16:49:14.779Z,2.43
2019-03-06T16:51:43.194Z,2.73
2019-03-06T16:54:12.238Z,2.40
2019-03-06T16:56:43.306Z,3.00
2019-03-06T16:59:14.949Z,2.00
2019-03-06T17:01:49.540Z,1.67
2019-03-06T17:04:18.106Z,1.77
2019-03-06T17:06:46.818Z,2.03
2019-03-06T17:09:18.538Z,1.87
2019-03-06T17:11:47.102Z,2.97
2019-03-06T17:14:17.167Z,3.47
2019-03-06T17:16:48.552Z,7.23
2019-03-06T17:19:56.339Z,3.13
2019-03-06T17:22:27.552Z,2.00
2019-03-06T17:24:56.013Z,2.00
2019-03-06T17:27:29.066Z,1.70
2019-03-06T17:30:01.924Z,1.80
2019-03-06T17:32:40.655Z,2.47
2019-03-06T17:35:09.594Z,3.07
2019-03-06T17:37:41.091Z,3.80
2019-03-06T17:40:12.518Z,3.40
2019-03-06T17:42:50.154Z,3.27
2019-03-06T17:45:22.123Z,2.50
2019-03-06T17:47:51.523Z,2.03
2019-03-06T17:50:21.543Z,2.83
2019-03-06T17:53:00.611Z,2.23
2019-03-06T17:55:29.831Z,2.63
2019-03-06T17:57:59.966Z,2.60
2019-03-06T18:00:47.554Z,4.47
2019-03-06T18:03:35.794Z,3.27
2019-03-06T18:06:08.812Z,2.97
2019-03-06T18:08:40.083Z,3.83
2019-03-06T18:11:14.786Z,2.70
2019-03-06T18:13:45.892Z,2.87
2019-03-06T18:16:16.192Z,3.20
2019-03-06T18:18:48.497Z,2.80
2019-03-06T18:21:16.958Z,3.50
2019-03-06T18:23:51.350Z,5.40
2019-03-06T18:26:19.926Z,3.47
2019-03-06T18:28:48.426Z,2.73
2019-03-06T18:31:19.509Z,3.17
2019-03-06T18:33:50.912Z,2.70
2019-03-06T18:36:21.378Z,3.37
2019-03-06T18:38:55.729Z,3.23
2019-03-06T18:41:28.470Z,2.83
2019-03-06T18:43:59.692Z,4.53
2019-03-06T18:46:36.958Z,3.47
2019-03-06T18:49:08.541Z,3.53
2019-03-06T18:51:37.307Z,5.20
2019-03-06T18:54:05.792Z,4.70
2019-03-06T18:56:34.431Z,4.00
2019-03-06T18:59:05.828Z,4.30
2019-03-06T19:01:37.493Z,9.40
2019-03-06T19:04:09.202Z,4.50
2019-03-06T19:06:38.142Z,5.70
2019-03-06T19:09:08.657Z,5.07
2019-03-06T19:11:37.177Z,2.50
2019-03-06T19:14:08.611Z,3.63
2019-03-06T19:16:37.109Z,4.90
2019-03-06T19:19:08.290Z,2.40
2019-03-06T19:21:36.831Z,7.10
2019-03-06T19:24:05.399Z,4.90
2019-03-06T19:26:38.267Z,4.70
2019-03-06T19:29:06.703Z,2.90
2019-03-06T19:31:37.995Z,3.00
2019-03-06T19:34:08.150Z,3.20
2019-03-06T19:36:36.646Z,3.03
2019-03-06T19:39:09.955Z,2.83
2019-03-06T19:41:50.078Z,4.33
2019-03-06T19:44:18.518Z,3.30
2019-03-06T19:46:46.936Z,2.60
2019-03-06T19:49:15.358Z,3.93
2019-03-06T19:51:51.577Z,2.57
2019-03-06T19:54:19.970Z,3.20
2019-03-06T19:56:55.096Z,2.83
2019-03-06T19:59:23.676Z,2.93
2019-03-06T20:01:55.197Z,3.73
2019-03-06T20:04:30.700Z,3.00
2019-03-06T20:07:10.613Z,2.67
2019-03-06T20:09:42.114Z,3.40
2019-03-06T20:12:13.312Z,3.53
2019-03-06T20:14:41.829Z,3.60
2019-03-06T20:17:10.505Z,6.93
2019-03-06T20:19:39.608Z,7.13
2019-03-06T20:22:08.111Z,5.83
2019-03-06T20:24:38.247Z,3.30
2019-03-06T20:27:06.726Z,2.93
2019-03-06T20:29:38.376Z,2.63
2019-03-06T20:32:06.878Z,2.50
2019-03-06T20:34:35.382Z,4.03
2019-03-06T20:37:06.646Z,2.47
2019-03-06T20:39:35.332Z,2.43
2019-03-06T20:42:05.395Z,2.70
2019-03-06T20:44:33.821Z,2.90
2019-03-06T20:47:11.466Z,2.37
2019-03-06T20:49:40.296Z,3.97
2019-03-06T20:52:08.785Z,3.60
2019-03-06T20:54:44.722Z,3.30
2019-03-06T20:57:13.139Z,3.47
2019-03-06T20:59:44.846Z,3.17
2019-03-06T21:02:16.045Z,3.23
2019-03-06T21:04:47.551Z,2.87
2019-03-06T21:07:17.606Z,2.50
2019-03-06T21:09:48.720Z,2.33
2019-03-06T21:12:25.541Z,3.10
2019-03-06T21:14:57.042Z,2.83
2019-03-06T21:17:25.456Z,3.30
2019-03-06T21:19:59.922Z,4.20
2019-03-06T21:22:32.935Z,3.10
2019-03-06T21:25:01.429Z,3.63
2019-03-06T21:27:41.158Z,2.87
2019-03-06T21:30:33.901Z,3.27
2019-03-06T21:33:05.132Z,4.10
2019-03-06T21:35:36.789Z,5.57
2019-03-06T21:38:13.253Z,3.83
2019-03-06T21:40:41.758Z,5.33
2019-03-06T21:43:14.531Z,3.63
2019-03-06T21:45:43.041Z,5.47
2019-03-06T21:48:13.943Z,3.80
2019-03-06T21:50:42.434Z,5.10
2019-03-06T21:53:12.926Z,3.53
2019-03-06T21:55:43.283Z,3.87
2019-03-06T21:58:16.794Z,4.07
2019-03-06T22:00:50.205Z,5.77
2019-03-06T22:03:18.676Z,4.37
2019-03-06T22:05:49.226Z,3.60
2019-03-06T22:08:23.837Z,3.23
2019-03-06T22:11:01.571Z,2.97
2019-03-06T22:13:30.068Z,3.33
2019-03-06T22:15:58.694Z,3.33
2019-03-06T22:18:29.033Z,4.23
2019-03-06T22:21:01.838Z,8.07
2019-03-06T22:23:45.602Z,2.60
2019-03-06T22:26:17.221Z,2.57
2019-03-06T22:28:45.810Z,2.50
2019-03-06T22:31:15.933Z,2.60
2019-03-06T22:33:47.317Z,3.23
2019-03-06T22:36:15.792Z,2.27
2019-03-06T22:38:45.873Z,2.90
2019-03-06T22:41:14.366Z,2.50
2019-03-06T22:43:47.614Z,3.07
2019-03-06T22:46:16.033Z,2.53
2019-03-06T22:48:48.316Z,2.50
2019-03-06T22:51:25.470Z,3.23
2019-03-06T22:53:53.194Z,3.03
2019-03-06T22:56:21.606Z,2.97
2019-03-06T22:58:50.028Z,3.60
2019-03-06T23:01:26.773Z,2.43
2019-03-06T23:04:01.541Z,3.00
2019-03-06T23:06:33.028Z,3.83
2019-03-06T23:09:01.453Z,2.70
2019-03-06T23:11:37.227Z,2.80
2019-03-06T23:14:06.138Z,2.63
2019-03-06T23:16:43.352Z,2.27
2019-03-06T23:19:20.242Z,2.40
2019-03-06T23:21:52.186Z,4.47
2019-03-06T23:24:24.462Z,3.30
2019-03-06T23:26:54.523Z,4.53
2019-03-06T23:29:23.221Z,2.80
2019-03-06T23:31:54.710Z,2.77
2019-03-06T23:34:24.831Z,2.20
2019-03-06T23:36:54.959Z,3.40
2019-03-06T23:39:23.937Z,2.90
2019-03-06T23:41:52.355Z,2.57
2019-03-06T23:44:20.766Z,2.83
2019-03-06T23:46:52.159Z,2.30
2019-03-06T23:49:21.146Z,3.03
2019-03-06T23:51:56.452Z,5.23
2019-03-06T23:54:24.876Z,3.77
2019-03-06T23:56:59.651Z,2.63
2019-03-06T23:59:28.076Z,2.10
